Time;durP1;ratioP1;P1;durP2;ratioP2;P2;SDS_P1;SDS_P2;PMS_P1;PMS_P2;Temp;Humidity;BMP_temperature;BMP_pressure;BME280_temperature;BME280_humidity;BME280_pressure;Samples;Min_cycle;Max_cycle;Signal;HPM_P1;HPM_P2
2022/06/05 00:01:29;;;;;;;26.15;18.98;;;11.40;99.90;;;;;;5023492;28;20500;-73
2022/06/05 00:03:58;;;;;;;23.55;19.15;;;11.40;99.90;;;;;;5046762;28;20450;-73
2022/06/05 00:07:08;;;;;;;24.15;19.45;;;11.40;99.90;;;;;;5051766;28;20044;-74
2022/06/05 00:09:57;;;;;;;23.63;19.25;;;11.40;99.90;;;;;;5030724;28;20041;-72
2022/06/05 00:12:38;;;;;;;22.30;19.13;;;11.40;99.90;;;;;;5050743;28;20120;-73
2022/06/05 00:15:05;;;;;;;21.77;19.52;;;11.40;99.90;;;;;;5047436;28;20049;-72
2022/06/05 00:17:31;;;;;;;20.70;18.52;;;11.40;99.90;;;;;;5028877;28;20507;-72
2022/06/05 00:19:57;;;;;;;25.42;19.70;;;11.30;99.90;;;;;;5045774;28;20583;-73
2022/06/05 00:22:22;;;;;;;24.05;19.70;;;11.30;99.90;;;;;;5043065;28;20064;-73
2022/06/05 00:24:48;;;;;;;21.23;19.02;;;11.40;99.90;;;;;;5038463;28;20053;-72
2022/06/05 00:27:30;;;;;;;20.98;18.77;;;11.40;99.90;;;;;;5030044;28;20033;-74
2022/06/05 00:30:11;;;;;;;21.38;18.30;;;11.30;99.90;;;;;;5046674;28;20048;-73
2022/06/05 00:32:48;;;;;;;24.48;19.40;;;11.30;99.90;;;;;;5045069;28;20143;-75
2022/06/05 00:35:17;;;;;;;23.13;19.67;;;11.30;99.90;;;;;;5047429;28;20052;-72
2022/06/05 00:38:04;;;;;;;22.52;18.00;;;11.30;99.90;;;;;;5044066;28;20045;-74
2022/06/05 00:40:46;;;;;;;23.95;18.70;;;11.40;99.90;;;;;;5042444;28;20048;-73
2022/06/05 00:43:14;;;;;;;21.75;19.35;;;11.30;99.90;;;;;;5041494;28;20046;-73
2022/06/05 00:45:41;;;;;;;23.92;19.58;;;11.30;99.90;;;;;;5045848;28;20037;-73
2022/06/05 00:48:09;;;;;;;22.17;18.85;;;11.40;99.90;;;;;;5031321;28;20041;-74
2022/06/05 00:50:35;;;;;;;20.95;18.33;;;11.30;99.90;;;;;;5048019;28;20072;-73
2022/06/05 00:53:03;;;;;;;22.75;18.73;;;11.30;99.90;;;;;;5046606;28;20055;-74
2022/06/05 00:55:35;;;;;;;23.83;18.70;;;11.30;99.90;;;;;;5011880;28;20037;-73
2022/06/05 00:58:02;;;;;;;21.67;18.33;;;11.30;99.90;;;;;;5045312;28;20416;-74
2022/06/05 01:00:33;;;;;;;22.85;19.00;;;11.30;99.90;;;;;;5045171;28;20037;-74
2022/06/05 01:03:01;;;;;;;21.73;19.15;;;11.30;99.90;;;;;;5041661;28;20041;-71
2022/06/05 01:05:28;;;;;;;21.80;18.15;;;11.30;99.90;;;;;;5047919;28;20060;-72
2022/06/05 01:07:55;;;;;;;23.38;18.25;;;11.30;99.90;;;;;;5042979;28;20053;-72
2022/06/05 01:10:25;;;;;;;22.23;17.48;;;11.30;99.90;;;;;;5046532;28;20128;-72
2022/06/05 01:13:10;;;;;;;19.30;17.33;;;11.30;99.90;;;;;;5040812;28;20048;-72
2022/06/05 01:15:54;;;;;;;22.20;18.02;;;11.30;99.90;;;;;;5040655;28;20067;-73
2022/06/05 01:19:16;;;;;;;20.75;18.27;;;11.30;99.90;;;;;;5026272;28;20053;-73
2022/06/05 01:22:03;;;;;;;24.67;17.95;;;11.40;99.90;;;;;;5040610;28;20046;-72
2022/06/05 01:24:41;;;;;;;23.20;19.02;;;11.30;99.90;;;;;;5000798;28;20045;-72
2022/06/05 01:27:12;;;;;;;20.77;17.77;;;11.30;99.90;;;;;;5040931;28;20303;-71
2022/06/05 01:29:58;;;;;;;26.88;18.58;;;11.30;99.90;;;;;;5029593;28;20055;-72
2022/06/05 01:32:34;;;;;;;22.23;18.50;;;11.30;99.90;;;;;;5033112;28;20052;-72
2022/06/05 01:35:14;;;;;;;22.65;17.60;;;11.30;99.90;;;;;;5043701;28;20103;-72
2022/06/05 01:37:49;;;;;;;21.77;17.85;;;11.30;99.90;;;;;;5028868;28;20141;-71
2022/06/05 01:40:30;;;;;;;21.38;18.40;;;11.30;99.90;;;;;;5061431;28;20066;-71
2022/06/05 01:43:05;;;;;;;21.55;18.08;;;11.30;99.90;;;;;;5043858;28;20124;-71
2022/06/05 01:45:34;;;;;;;21.40;17.27;;;11.30;99.90;;;;;;5046744;28;20156;-72
2022/06/05 01:48:02;;;;;;;23.08;17.60;;;11.30;99.90;;;;;;5042229;28;20048;-71
2022/06/05 01:50:40;;;;;;;21.75;17.50;;;11.30;99.90;;;;;;5046610;28;20108;-71
2022/06/05 01:53:29;;;;;;;21.48;17.30;;;11.30;99.90;;;;;;5047806;28;20040;-71
2022/06/05 01:56:08;;;;;;;22.83;18.23;;;11.30;99.90;;;;;;5045719;28;20079;-71
2022/06/05 01:58:40;;;;;;;22.50;18.25;;;11.30;99.90;;;;;;5048681;28;20209;-73
2022/06/05 02:01:14;;;;;;;24.95;19.20;;;11.20;99.90;;;;;;5047183;28;20041;-72
2022/06/05 02:03:46;;;;;;;20.65;18.02;;;11.30;99.90;;;;;;5052686;28;20072;-72
2022/06/05 02:06:17;;;;;;;21.38;18.17;;;11.30;99.90;;;;;;5055550;28;20052;-72
2022/06/05 02:08:59;;;;;;;24.10;18.58;;;11.30;99.90;;;;;;5033852;28;20544;-72
2022/06/05 02:11:31;;;;;;;21.52;18.83;;;11.20;99.90;;;;;;5054064;28;20044;-72
2022/06/05 02:14:02;;;;;;;23.42;18.85;;;11.30;99.90;;;;;;5057348;28;20048;-72
2022/06/05 02:16:30;;;;;;;27.65;18.70;;;11.30;99.90;;;;;;5030605;28;20040;-71
2022/06/05 02:18:59;;;;;;;22.38;18.30;;;11.30;99.90;;;;;;5049423;28;20102;-71
2022/06/05 02:21:26;;;;;;;29.60;20.35;;;11.30;99.90;;;;;;5032106;28;20033;-72
2022/06/05 02:23:52;;;;;;;24.77;19.20;;;11.20;99.90;;;;;;5048864;28;20461;-72
2022/06/05 02:26:18;;;;;;;24.10;19.30;;;11.30;99.90;;;;;;5042385;28;20041;-72
2022/06/05 02:28:44;;;;;;;23.10;19.20;;;11.30;99.90;;;;;;5042540;28;20095;-72
2022/06/05 02:31:41;;;;;;;27.95;18.77;;;11.30;99.90;;;;;;5022540;28;20643;-73
2022/06/05 02:34:31;;;;;;;24.70;19.60;;;11.30;99.90;;;;;;5046244;28;20066;-73
2022/06/05 02:37:12;;;;;;;22.27;19.00;;;11.30;99.90;;;;;;5021426;28;20503;-72
2022/06/05 02:39:37;;;;;;;21.92;19.35;;;11.30;99.90;;;;;;5045469;28;20048;-73
2022/06/05 02:42:27;;;;;;;25.27;19.40;;;11.30;99.90;;;;;;5050866;28;20218;-72
2022/06/05 02:45:14;;;;;;;24.10;18.92;;;11.30;99.90;;;;;;5054424;28;20048;-73
2022/06/05 02:48:20;;;;;;;25.65;19.25;;;11.30;99.90;;;;;;5040444;28;20132;-73
2022/06/05 02:50:54;;;;;;;22.77;20.38;;;11.30;99.90;;;;;;5009634;28;20064;-72
2022/06/05 02:53:20;;;;;;;24.30;19.58;;;11.30;99.90;;;;;;5027171;28;20045;-73
2022/06/05 02:55:46;;;;;;;27.35;21.77;;;11.30;99.90;;;;;;5027367;28;20518;-70
2022/06/05 02:58:13;;;;;;;27.42;20.85;;;11.30;99.90;;;;;;5024363;28;20059;-72
2022/06/05 03:00:40;;;;;;;27.23;20.65;;;11.30;99.90;;;;;;5027938;28;20090;-72
2022/06/05 03:05:51;;;;;;;26.30;21.08;;;11.30;99.90;;;;;;5055623;28;20126;-72
2022/06/05 03:08:18;;;;;;;27.58;20.90;;;11.30;99.90;;;;;;5026407;28;20507;-73
2022/06/05 03:10:44;;;;;;;24.02;21.15;;;11.30;99.90;;;;;;5042076;28;20399;-72
2022/06/05 03:13:11;;;;;;;27.58;21.85;;;11.40;99.90;;;;;;5046715;28;20404;-73
2022/06/05 03:15:38;;;;;;;25.95;21.15;;;11.30;99.90;;;;;;5047072;28;20132;-73
2022/06/05 03:18:05;;;;;;;26.15;21.60;;;11.40;99.90;;;;;;5042620;28;20045;-73
2022/06/05 03:20:31;;;;;;;30.10;21.23;;;11.30;99.90;;;;;;5047173;28;21254;-73
2022/06/05 03:22:57;;;;;;;28.30;21.25;;;11.30;99.90;;;;;;5031916;28;20439;-73
2022/06/05 03:25:24;;;;;;;29.52;21.17;;;11.30;99.90;;;;;;5011260;28;20048;-73
2022/06/05 03:27:50;;;;;;;28.92;22.42;;;11.30;99.90;;;;;;5031396;28;20041;-73
2022/06/05 03:30:17;;;;;;;29.65;22.05;;;11.40;99.90;;;;;;5045028;28;20067;-72
2022/06/05 03:32:46;;;;;;;28.02;22.90;;;11.40;99.90;;;;;;5029735;28;20575;-71
2022/06/05 03:35:14;;;;;;;28.00;22.60;;;11.40;99.90;;;;;;5044281;28;20045;-72
2022/06/05 03:37:39;;;;;;;30.83;22.83;;;11.40;99.90;;;;;;5029495;28;20449;-73
2022/06/05 03:40:11;;;;;;;29.90;23.05;;;11.40;99.90;;;;;;5049373;28;20374;-73
2022/06/05 03:42:37;;;;;;;29.65;23.27;;;11.40;99.90;;;;;;5046351;28;20045;-73
2022/06/05 03:45:04;;;;;;;27.52;21.90;;;11.40;99.90;;;;;;5029724;28;20412;-73
2022/06/05 03:47:30;;;;;;;28.08;22.83;;;11.40;99.90;;;;;;5040807;28;20507;-73
2022/06/05 03:49:56;;;;;;;30.95;23.45;;;11.50;99.90;;;;;;5040491;28;20052;-73
2022/06/05 03:52:22;;;;;;;28.67;22.95;;;11.50;99.90;;;;;;5022865;28;20395;-73
2022/06/05 03:54:47;;;;;;;27.58;22.42;;;11.50;99.90;;;;;;5051984;28;20053;-74
2022/06/05 03:57:16;;;;;;;28.90;22.88;;;11.50;99.90;;;;;;5009865;28;20042;-73
2022/06/05 03:59:42;;;;;;;28.23;23.08;;;11.50;99.90;;;;;;5014921;28;20045;-73
2022/06/05 04:02:08;;;;;;;29.35;22.58;;;11.50;99.90;;;;;;5024481;28;20057;-73
2022/06/05 04:04:33;;;;;;;29.25;23.27;;;11.60;99.90;;;;;;5041199;28;20596;-74
2022/06/05 04:06:59;;;;;;;31.33;23.20;;;11.60;99.90;;;;;;5046535;28;20060;-73
2022/06/05 04:09:25;;;;;;;28.60;23.08;;;11.60;99.90;;;;;;5045039;28;20118;-73
2022/06/05 04:11:51;;;;;;;29.40;23.88;;;11.60;99.90;;;;;;5039545;28;20112;-73
2022/06/05 04:14:17;;;;;;;25.92;22.75;;;11.60;99.90;;;;;;5023903;28;20040;-73
2022/06/05 04:16:46;;;;;;;28.30;22.73;;;11.70;99.90;;;;;;5046320;28;20056;-74
2022/06/05 04:19:11;;;;;;;25.13;22.17;;;11.70;99.90;;;;;;5038995;28;20430;-74
2022/06/05 04:21:41;;;;;;;28.35;23.02;;;11.70;99.90;;;;;;5043397;28;20051;-73
2022/06/05 04:24:07;;;;;;;31.23;22.50;;;11.70;99.90;;;;;;5039915;28;20507;-74
2022/06/05 04:26:34;;;;;;;28.55;22.40;;;11.80;99.90;;;;;;5011233;28;20105;-74
2022/06/05 04:29:00;;;;;;;30.13;23.25;;;11.80;99.90;;;;;;5042642;28;20052;-74
2022/06/05 04:31:26;;;;;;;25.13;21.58;;;11.80;99.90;;;;;;5029718;28;20497;-72
2022/06/05 04:33:53;;;;;;;25.77;21.27;;;11.90;99.90;;;;;;5042419;28;20187;-72
2022/06/05 04:36:20;;;;;;;22.50;20.10;;;11.90;99.90;;;;;;5045433;28;20601;-73
2022/06/05 04:38:47;;;;;;;25.30;19.75;;;12.00;99.90;;;;;;5044515;28;20326;-73
2022/06/05 04:41:13;;;;;;;22.50;20.08;;;12.10;99.90;;;;;;5035892;28;20041;-73
2022/06/05 04:43:39;;;;;;;24.45;21.13;;;12.10;99.90;;;;;;5047509;28;20077;-73
2022/06/05 04:46:07;;;;;;;23.10;20.60;;;12.20;99.90;;;;;;5044665;28;20055;-72
2022/06/05 04:48:33;;;;;;;22.85;20.38;;;12.30;99.90;;;;;;5034972;28;20423;-72
2022/06/05 04:51:03;;;;;;;22.52;20.25;;;12.30;99.90;;;;;;5035364;28;20049;-72
2022/06/05 04:53:29;;;;;;;26.38;21.08;;;12.30;99.90;;;;;;5044837;28;20388;-72
2022/06/05 04:55:55;;;;;;;22.58;19.10;;;12.40;99.90;;;;;;5046483;28;20060;-72
2022/06/05 04:58:20;;;;;;;22.80;19.88;;;12.50;99.90;;;;;;5045180;28;20723;-72
2022/06/05 05:00:46;;;;;;;25.17;19.98;;;12.50;99.90;;;;;;5009590;28;20052;-73
2022/06/05 05:03:12;;;;;;;22.92;20.42;;;12.60;99.90;;;;;;5046553;28;20576;-73
2022/06/05 05:05:38;;;;;;;22.02;19.73;;;12.60;99.90;;;;;;5046974;28;20047;-73
2022/06/05 05:08:04;;;;;;;23.17;20.55;;;12.60;99.90;;;;;;5046754;28;20084;-73
2022/06/05 05:10:30;;;;;;;22.55;20.25;;;12.70;99.90;;;;;;5047764;28;20098;-72
2022/06/05 05:12:55;;;;;;;23.80;19.50;;;12.70;99.90;;;;;;5029068;28;20468;-73
2022/06/05 05:15:21;;;;;;;22.20;19.80;;;12.70;99.90;;;;;;5039701;28;20048;-72
2022/06/05 05:17:47;;;;;;;21.83;18.65;;;12.80;99.90;;;;;;5043804;28;20060;-72
2022/06/05 05:20:16;;;;;;;21.70;18.13;;;12.80;99.90;;;;;;5028669;28;20064;-72
2022/06/05 05:22:42;;;;;;;20.77;18.67;;;12.90;99.90;;;;;;5028230;28;20095;-73
2022/06/05 05:25:12;;;;;;;23.42;21.00;;;12.90;99.90;;;;;;5046318;28;20053;-70
2022/06/05 05:27:39;;;;;;;20.75;18.58;;;12.90;99.90;;;;;;5045049;28;20045;-71
2022/06/05 05:30:06;;;;;;;20.33;18.27;;;13.00;99.90;;;;;;5027333;28;20057;-71
2022/06/05 05:32:33;;;;;;;20.70;18.52;;;13.00;99.90;;;;;;5038619;28;20048;-71
2022/06/05 05:34:58;;;;;;;20.23;18.10;;;13.10;99.90;;;;;;5045506;28;20044;-71
2022/06/05 05:37:24;;;;;;;21.08;18.88;;;13.20;99.90;;;;;;5026065;28;20047;-72
2022/06/05 05:42:34;;;;;;;20.67;18.48;;;13.30;99.90;;;;;;5051679;28;20078;-71
2022/06/05 05:45:00;;;;;;;20.85;18.73;;;13.30;99.90;;;;;;5027869;28;20511;-73
2022/06/05 05:47:31;;;;;;;20.33;18.38;;;13.40;99.90;;;;;;5046595;28;20404;-71
2022/06/05 05:50:04;;;;;;;20.95;18.75;;;13.40;99.90;;;;;;5038704;28;20135;-72
2022/06/05 05:52:30;;;;;;;21.23;19.13;;;13.40;99.90;;;;;;5044656;28;20033;-72
2022/06/05 05:54:56;;;;;;;19.80;17.70;;;13.50;99.90;;;;;;5027082;28;20052;-71
2022/06/05 05:57:22;;;;;;;21.83;19.52;;;13.50;99.90;;;;;;5026000;28;20458;-71
2022/06/05 05:59:49;;;;;;;20.80;18.65;;;13.60;99.90;;;;;;5048629;28;20045;-72
2022/06/05 06:02:21;;;;;;;21.48;19.42;;;13.60;99.90;;;;;;5026175;28;20048;-71
2022/06/05 06:04:49;;;;;;;20.45;18.35;;;13.70;99.90;;;;;;5046439;28;20045;-71
2022/06/05 06:07:15;;;;;;;20.73;18.63;;;13.70;99.90;;;;;;5046148;28;20083;-72
2022/06/05 06:09:42;;;;;;;21.00;18.88;;;13.80;99.90;;;;;;5044552;28;20248;-71
2022/06/05 06:12:09;;;;;;;20.05;17.95;;;13.80;99.90;;;;;;5035798;28;20048;-70
2022/06/05 06:14:36;;;;;;;19.05;17.15;;;13.90;99.90;;;;;;5039436;28;20129;-71
2022/06/05 06:17:02;;;;;;;20.08;18.08;;;13.90;99.90;;;;;;5028727;28;20415;-71
2022/06/05 06:19:28;;;;;;;19.48;17.50;;;14.00;99.90;;;;;;5023278;28;20049;-71
2022/06/05 06:21:53;;;;;;;20.30;18.20;;;14.10;99.90;;;;;;5046082;28;20037;-71
2022/06/05 06:24:22;;;;;;;18.27;16.55;;;14.20;99.90;;;;;;5020862;28;20040;-71
2022/06/05 06:26:48;;;;;;;19.48;17.42;;;14.20;99.90;;;;;;5026913;28;20033;-71
2022/06/05 06:29:14;;;;;;;18.98;16.98;;;14.30;99.90;;;;;;5008322;28;20047;-71
2022/06/05 06:31:42;;;;;;;19.13;17.30;;;14.40;99.90;;;;;;5042252;28;20526;-71
2022/06/05 06:34:08;;;;;;;20.27;18.23;;;14.50;99.90;;;;;;5042444;28;20571;-71
2022/06/05 06:36:34;;;;;;;19.42;17.23;;;14.50;99.90;;;;;;5043279;28;20055;-71
2022/06/05 06:39:00;;;;;;;18.20;16.42;;;14.60;99.90;;;;;;5022898;28;20083;-71
2022/06/05 06:41:26;;;;;;;18.33;16.42;;;14.70;99.90;;;;;;5026909;28;20083;-71
2022/06/05 06:43:53;;;;;;;19.33;17.25;;;14.80;99.90;;;;;;5040915;28;20222;-72
2022/06/05 06:46:19;;;;;;;20.10;17.25;;;14.90;99.90;;;;;;5025918;28;20060;-71
2022/06/05 06:48:46;;;;;;;18.80;16.77;;;15.00;99.90;;;;;;5041178;28;20592;-73
2022/06/05 06:51:16;;;;;;;18.60;16.77;;;15.10;99.90;;;;;;5042889;28;20087;-71
2022/06/05 06:53:43;;;;;;;18.05;16.25;;;15.30;99.90;;;;;;5033510;28;20522;-71
2022/06/05 06:56:17;;;;;;;16.90;15.25;;;15.40;99.90;;;;;;5043713;28;20052;-71
2022/06/05 06:58:46;;;;;;;18.00;16.08;;;15.60;99.90;;;;;;5027421;28;20053;-71
2022/06/05 07:01:13;;;;;;;17.08;15.27;;;15.70;99.90;;;;;;5044804;28;20404;-71
2022/06/05 07:03:39;;;;;;;16.75;14.85;;;16.00;99.90;;;;;;5031560;28;20099;-70
2022/06/05 07:06:08;;;;;;;15.90;14.35;;;16.10;99.90;;;;;;5029774;28;20751;-72
2022/06/05 07:08:34;;;;;;;14.75;13.25;;;16.20;99.90;;;;;;5047244;28;20037;-71
2022/06/05 07:11:06;;;;;;;15.05;13.55;;;16.30;99.90;;;;;;5052173;28;20048;-71
2022/06/05 07:13:35;;;;;;;14.88;13.27;;;16.40;99.90;;;;;;5047222;28;20128;-71
2022/06/05 07:16:01;;;;;;;14.52;13.02;;;16.50;99.90;;;;;;5050149;28;20257;-71
2022/06/05 07:18:27;;;;;;;13.98;12.57;;;16.60;99.90;;;;;;5029768;28;20415;-71
2022/06/05 07:20:53;;;;;;;14.80;13.40;;;16.70;99.90;;;;;;5029837;28;20075;-70
2022/06/05 07:23:19;;;;;;;13.32;11.98;;;16.80;99.90;;;;;;5052122;28;20131;-71
2022/06/05 07:25:50;;;;;;;14.30;12.90;;;17.00;99.90;;;;;;5030461;28;20555;-71
2022/06/05 07:28:17;;;;;;;13.25;11.95;;;17.10;99.90;;;;;;5046438;28;20045;-71
2022/06/05 07:30:47;;;;;;;13.38;11.63;;;17.20;99.90;;;;;;5031904;28;20547;-71
2022/06/05 07:33:13;;;;;;;14.45;13.10;;;17.30;99.90;;;;;;5048236;28;20048;-71
2022/06/05 07:35:40;;;;;;;12.65;11.35;;;17.30;99.90;;;;;;5030255;28;20069;-71
2022/06/05 07:38:06;;;;;;;14.18;11.20;;;17.40;99.90;;;;;;5048359;28;20099;-71
2022/06/05 07:40:31;;;;;;;12.98;11.65;;;17.50;99.90;;;;;;5029211;28;20049;-70
2022/06/05 07:42:57;;;;;;;12.43;11.13;;;17.60;99.90;;;;;;5034574;28;20062;-70
2022/06/05 07:45:23;;;;;;;12.32;11.00;;;17.70;99.90;;;;;;5029057;28;20510;-71
2022/06/05 07:47:48;;;;;;;12.18;10.45;;;17.80;99.90;;;;;;5011061;28;20395;-73
2022/06/05 07:50:14;;;;;;;11.55;10.35;;;17.90;99.90;;;;;;5046131;28;20045;-71
2022/06/05 07:55:25;;;;;;;11.23;10.13;;;18.20;99.90;;;;;;5017496;28;20056;-71
2022/06/05 07:57:51;;;;;;;11.75;10.23;;;18.30;99.90;;;;;;5049180;28;20088;-71
2022/06/05 08:00:17;;;;;;;11.48;9.80;;;18.30;99.90;;;;;;5011369;28;20084;-71
2022/06/05 08:02:43;;;;;;;10.68;9.57;;;18.40;99.90;;;;;;5045882;28;20051;-71
2022/06/05 08:05:10;;;;;;;10.95;9.25;;;18.50;99.90;;;;;;5046407;28;20047;-71
2022/06/05 08:07:37;;;;;;;11.98;9.25;;;18.60;99.90;;;;;;5029556;28;20075;-72
2022/06/05 08:10:04;;;;;;;10.05;9.02;;;18.70;99.90;;;;;;5046178;28;20076;-72
2022/06/05 08:12:33;;;;;;;10.50;9.40;;;18.80;99.90;;;;;;5034287;28;20041;-71
2022/06/05 08:15:08;;;;;;;11.10;9.32;;;18.80;99.90;;;;;;5060236;28;20072;-71
2022/06/05 08:17:35;;;;;;;11.40;10.00;;;18.90;99.90;;;;;;5047847;28;20057;-71
2022/06/05 08:20:01;;;;;;;11.75;9.00;;;18.90;99.90;;;;;;5026053;28;20107;-71
2022/06/05 08:22:28;;;;;;;11.55;9.68;;;19.00;99.90;;;;;;5043940;28;20492;-71
2022/06/05 08:24:54;;;;;;;11.82;9.45;;;19.10;99.90;;;;;;5033134;28;20045;-72
2022/06/05 08:27:24;;;;;;;10.70;8.57;;;19.20;99.90;;;;;;5030172;28;20392;-71
2022/06/05 08:29:50;;;;;;;;;;;19.30;99.90;;;;;;5026718;28;20041;-71
2022/06/05 08:32:17;;;;;;;9.82;8.65;;;19.50;99.90;;;;;;5062569;28;19920;-72
2022/06/05 08:34:43;;;;;;;10.30;8.68;;;19.60;99.90;;;;;;5043599;28;20043;-71
2022/06/05 08:43:18;;;;;;;10.63;9.05;;;19.80;99.90;;;;;;5045100;28;20396;-71
2022/06/05 08:45:50;;;;;;;11.15;8.95;;;19.80;99.90;;;;;;5043886;28;20132;-71
2022/06/05 08:48:27;;;;;;;10.73;9.63;;;19.70;99.90;;;;;;5029390;28;20115;-72
2022/06/05 08:50:57;;;;;;;9.38;8.40;;;19.70;99.90;;;;;;5042903;28;20041;-71
2022/06/05 08:53:26;;;;;;;;;;;19.80;99.90;;;;;;5059529;28;20115;-71
2022/06/05 08:55:54;;;;;;;9.65;8.40;;;19.80;99.90;;;;;;5046375;28;20298;-72
2022/06/05 08:58:30;;;;;;;10.35;9.25;;;19.90;99.90;;;;;;5042650;28;20469;-72
2022/06/05 09:01:04;;;;;;;10.40;9.25;;;20.00;99.90;;;;;;5055102;28;20048;-73
2022/06/05 09:03:49;;;;;;;11.90;9.82;;;20.00;99.90;;;;;;5027623;28;20415;-73
2022/06/05 09:06:39;;;;;;;10.32;8.93;;;20.10;99.90;;;;;;5046083;28;20496;-72
2022/06/05 09:09:13;;;;;;;11.38;9.77;;;20.20;99.90;;;;;;5060088;28;20068;-72
2022/06/05 09:12:12;;;;;;;10.73;9.50;;;20.40;99.90;;;;;;5043600;28;20057;-72
2022/06/05 09:14:45;;;;;;;10.57;9.48;;;20.60;99.90;;;;;;5026726;28;20048;-72
2022/06/05 09:17:17;;;;;;;12.00;9.15;;;20.70;99.90;;;;;;5028643;28;20086;-72
2022/06/05 09:19:45;;;;;;;8.88;7.97;;;20.80;99.90;;;;;;5026715;28;20581;-72
2022/06/05 09:22:24;;;;;;;10.40;8.27;;;20.90;99.90;;;;;;5024469;28;20105;-73
2022/06/05 09:25:21;;;;;;;10.20;8.38;;;21.00;99.90;;;;;;5042362;28;20088;-72
2022/06/05 09:28:26;;;;;;;8.95;8.05;;;21.30;99.90;;;;;;5046262;28;20053;-72
2022/06/05 09:31:00;;;;;;;9.48;8.55;;;21.40;99.90;;;;;;5005834;28;20492;-73
2022/06/05 09:33:32;;;;;;;10.77;8.35;;;21.50;99.90;;;;;;5032572;28;20045;-73
2022/06/05 09:36:05;;;;;;;9.77;8.73;;;21.60;99.90;;;;;;5026360;28;20048;-72
2022/06/05 09:39:17;;;;;;;8.88;7.97;;;21.80;99.90;;;;;;5061857;28;20557;-72
2022/06/05 09:42:06;;;;;;;8.32;7.53;;;21.90;99.90;;;;;;5040985;28;20053;-71
2022/06/05 09:44:52;;;;;;;9.70;8.30;;;22.00;99.90;;;;;;4951568;28;20053;-72
2022/06/05 09:47:26;;;;;;;8.90;7.95;;;22.00;99.90;;;;;;5041898;28;20045;-72
2022/06/05 09:49:58;;;;;;;9.32;8.43;;;22.10;99.90;;;;;;5042603;28;20110;-72
2022/06/05 09:52:30;;;;;;;9.93;8.93;;;22.10;99.90;;;;;;5026461;28;20267;-70
2022/06/05 09:55:17;;;;;;;10.10;8.25;;;22.20;99.90;;;;;;5050265;28;20093;-71
2022/06/05 09:58:24;;;;;;;8.73;7.78;;;22.20;99.90;;;;;;5055454;28;20094;-71
2022/06/05 10:00:56;;;;;;;9.60;8.60;;;22.20;99.90;;;;;;5041876;28;20075;-71
2022/06/05 10:03:32;;;;;;;8.73;7.82;;;22.10;99.90;;;;;;5043245;28;20061;-71
2022/06/05 10:06:19;;;;;;;8.70;7.78;;;22.10;99.90;;;;;;5053541;28;20395;-71
2022/06/05 10:08:50;;;;;;;10.07;8.90;;;22.10;99.90;;;;;;5041754;28;20093;-72
2022/06/05 10:11:25;;;;;;;10.43;9.25;;;22.20;99.90;;;;;;5042531;28;20511;-72
2022/06/05 10:14:18;;;;;;;9.60;8.70;;;22.20;99.90;;;;;;5051946;28;20482;-72
2022/06/05 10:17:14;;;;;;;11.00;9.82;;;22.20;99.90;;;;;;5040035;28;20053;-71
2022/06/05 10:20:15;;;;;;;10.48;9.27;;;22.10;99.90;;;;;;5051676;28;20110;-70
2022/06/05 10:23:16;;;;;;;10.27;8.57;;;22.00;99.90;;;;;;5055468;28;20041;-71
2022/06/05 10:26:22;;;;;;;9.52;8.50;;;22.00;99.90;;;;;;5057804;28;20697;-70
2022/06/05 10:28:52;;;;;;;9.60;8.50;;;22.00;99.90;;;;;;5020161;28;20403;-72
2022/06/05 10:31:21;;;;;;;9.70;8.02;;;22.00;99.90;;;;;;5035376;28;20514;-71
2022/06/05 10:34:17;;;;;;;9.43;8.40;;;22.00;99.90;;;;;;5042686;28;20159;-71
2022/06/05 10:36:46;;;;;;;9.10;8.15;;;22.00;99.90;;;;;;5046665;28;20056;-72
2022/06/05 10:39:22;;;;;;;8.77;7.83;;;22.10;99.90;;;;;;5024977;28;20511;-71
2022/06/05 10:41:57;;;;;;;9.32;8.27;;;22.10;99.90;;;;;;5047548;28;20064;-72
2022/06/05 10:44:34;;;;;;;10.07;8.40;;;22.20;99.90;;;;;;5031668;28;20082;-72
2022/06/05 10:47:09;;;;;;;9.68;8.68;;;22.20;99.90;;;;;;5061335;28;20403;-72
2022/06/05 10:50:00;;;;;;;9.45;7.78;;;22.20;99.90;;;;;;5032353;28;20056;-72
2022/06/05 10:52:26;;;;;;;9.20;7.70;;;22.30;99.90;;;;;;5046616;28;20040;-71
2022/06/05 10:55:16;;;;;;;9.73;8.73;;;22.30;99.90;;;;;;5055171;28;20059;-71
2022/06/05 10:57:53;;;;;;;9.60;8.68;;;22.40;99.90;;;;;;5032777;28;20056;-72
2022/06/05 11:00:23;;;;;;;8.32;7.53;;;22.40;99.90;;;;;;5049282;28;20041;-72
2022/06/05 11:03:27;;;;;;;8.82;8.02;;;22.40;99.90;;;;;;5059082;28;20048;-71
2022/06/05 11:06:30;;;;;;;9.05;7.55;;;22.50;99.90;;;;;;5037647;28;20057;-71
2022/06/05 11:09:33;;;;;;;8.82;7.95;;;22.60;99.90;;;;;;5046682;28;20044;-72
2022/06/05 11:15:03;;;;;;;9.70;8.40;;;22.70;99.90;;;;;;5045396;28;20053;-71
2022/06/05 11:17:57;;;;;;;8.73;7.90;;;22.70;99.90;;;;;;5044492;28;20083;-72
2022/06/05 11:20:26;;;;;;;8.73;7.70;;;22.70;99.90;;;;;;5045426;28;20057;-71
2022/06/05 11:23:18;;;;;;;9.10;8.20;;;22.80;99.90;;;;;;5046816;28;20070;-71
2022/06/05 11:26:21;;;;;;;8.88;7.97;;;22.80;99.90;;;;;;5055644;28;20106;-71
2022/06/05 11:29:04;;;;;;;8.15;7.40;;;22.80;99.90;;;;;;5044681;28;20540;-72
2022/06/05 11:31:54;;;;;;;8.90;8.00;;;22.90;99.90;;;;;;5028358;28;20087;-72
2022/06/05 11:34:29;;;;;;;9.32;7.80;;;23.00;99.90;;;;;;5054858;28;20474;-71
2022/06/05 11:37:16;;;;;;;9.55;8.68;;;23.00;99.90;;;;;;5044565;28;20134;-71
2022/06/05 11:39:46;;;;;;;9.77;8.32;;;23.10;99.50;;;;;;5045649;28;20073;-72
2022/06/05 11:42:38;;;;;;;8.90;8.10;;;23.00;99.90;;;;;;5053917;28;20049;-72
2022/06/05 11:45:04;;;;;;;10.68;8.35;;;23.10;99.90;;;;;;5063997;28;20491;-71
2022/06/05 11:47:47;;;;;;;9.00;8.13;;;23.10;99.90;;;;;;5045330;28;20124;-72
2022/06/05 11:50:21;;;;;;;8.68;7.85;;;23.20;99.80;;;;;;5049488;28;20045;-72
2022/06/05 11:53:20;;;;;;;9.13;8.07;;;23.20;99.90;;;;;;5030911;28;20132;-72
2022/06/05 11:55:53;;;;;;;9.18;7.80;;;23.20;99.90;;;;;;5028273;28;20576;-71
2022/06/05 11:58:41;;;;;;;8.20;7.40;;;23.30;99.90;;;;;;5043813;28;20511;-72
2022/06/05 12:01:16;;;;;;;8.30;7.50;;;23.30;99.90;;;;;;5027393;28;20114;-72
2022/06/05 12:03:55;;;;;;;7.80;7.13;;;23.30;99.90;;;;;;5044962;28;20084;-72
2022/06/05 12:06:29;;;;;;;8.68;7.85;;;23.40;99.90;;;;;;5040826;28;20083;-75
2022/06/05 12:08:58;;;;;;;9.50;8.60;;;23.40;99.90;;;;;;5024674;28;20132;-72
2022/06/05 12:11:33;;;;;;;8.55;7.82;;;23.40;98.90;;;;;;5045303;28;20048;-73
2022/06/05 12:14:05;;;;;;;9.05;8.23;;;23.30;98.50;;;;;;5065223;28;20048;-72
2022/06/05 12:16:50;;;;;;;9.20;8.18;;;23.30;97.90;;;;;;5030831;28;20048;-73
2022/06/05 12:19:25;;;;;;;8.93;8.10;;;23.20;97.70;;;;;;5063329;28;20526;-72
2022/06/05 12:22:19;;;;;;;9.98;8.23;;;23.20;98.20;;;;;;5026512;28;20496;-72
2022/06/05 12:25:14;;;;;;;10.10;8.10;;;23.20;98.70;;;;;;5041891;28;20594;-72
2022/06/05 12:28:05;;;;;;;9.05;8.15;;;23.10;98.60;;;;;;5036265;28;20114;-72
2022/06/05 12:30:49;;;;;;;9.30;8.40;;;23.10;98.40;;;;;;5048049;28;20040;-71
2022/06/05 12:33:36;;;;;;;8.77;7.95;;;23.10;97.90;;;;;;5056909;28;20047;-72
2022/06/05 12:36:19;;;;;;;9.75;8.07;;;23.10;99.20;;;;;;5061007;28;20509;-72
2022/06/05 12:39:05;;;;;;;8.23;7.50;;;23.00;99.90;;;;;;5027963;28;20503;-72
2022/06/05 12:41:50;;;;;;;9.10;7.93;;;23.00;99.90;;;;;;5027820;28;20049;-72
2022/06/05 12:44:47;;;;;;;8.63;7.82;;;23.00;99.90;;;;;;5048673;28;20525;-72
2022/06/05 12:47:19;;;;;;;10.18;8.32;;;23.00;99.90;;;;;;5014626;28;20053;-72
2022/06/05 12:49:54;;;;;;;9.25;8.02;;;23.10;99.90;;;;;;5038819;28;20427;-72
2022/06/05 12:52:30;;;;;;;9.13;8.23;;;23.10;99.90;;;;;;5049586;28;20130;-72
2022/06/05 12:55:14;;;;;;;9.98;9.05;;;23.10;99.90;;;;;;5048349;28;20056;-72
2022/06/05 12:57:46;;;;;;;9.75;7.97;;;23.10;99.90;;;;;;5046376;28;20041;-72
2022/06/05 13:00:34;;;;;;;10.07;9.07;;;23.10;99.90;;;;;;5052683;28;20048;-72
2022/06/05 13:03:16;;;;;;;10.40;8.48;;;23.10;99.90;;;;;;5026789;28;21139;-72
2022/06/05 13:06:12;;;;;;;9.55;8.68;;;23.10;99.90;;;;;;5050570;28;20037;-71
2022/06/05 13:08:54;;;;;;;10.18;9.27;;;23.10;99.90;;;;;;5044138;28;20492;-73
2022/06/05 13:11:25;;;;;;;9.15;8.25;;;23.10;99.90;;;;;;5044476;28;20077;-72
2022/06/05 13:14:19;;;;;;;9.52;8.73;;;23.10;99.90;;;;;;5061398;28;20049;-72
2022/06/05 13:17:00;;;;;;;9.10;8.20;;;23.10;99.90;;;;;;5043233;28;20033;-72
2022/06/05 13:20:00;;;;;;;8.50;7.70;;;23.10;99.90;;;;;;5054240;28;20052;-72
2022/06/05 13:22:35;;;;;;;10.75;7.90;;;23.20;99.90;;;;;;5026055;28;20127;-72
2022/06/05 13:25:23;;;;;;;9.98;8.98;;;23.20;99.90;;;;;;5056699;28;20045;-72